• Join FlightAware (Why Join?)
  • Login
  • US Flag 
12:56AM EST


 

Airport Tracker/Info


-or-


 

Live Flight TrackerFlight Track Log ✈ EGF4174 ✈ 02-May-2013 ✈ KSYR - KORD

Flight Track Log - Related Links

Times and Time Zones

All times are in EDT time to prevent confusion due to time zone crossing. See the EGF4174 flight status page for this flight to view local times or setup timezone preferences in your user account.

Time Position Orientation Groundspeed Altitude Reporting Facility
EDT Latitude Longitude Course Direction KTS MPH feet Rate Location/Type
04:58PM 43.1092 -76.0808 286° West 183 211 1,400  Level Boston Center
04:59PM 43.1508 -76.0150 49° Northeast 236 272 4,000 1,800 Climbing Boston Center
05:00PM 43.1943 -76.4443 324° Northwest  Level FlightAware Approximate
05:01PM 43.2094 -76.5660 281° West  Level FlightAware Approximate
05:01PM 43.1731 -76.1931 280° West 275 316 7,500  Level Cleveland Center
05:02PM 43.2322 -76.6889 286° West  Level FlightAware Approximate
05:02PM 43.1753 -76.3039 272° West 281 323 9,400  Level Cleveland Center
05:03PM 43.2583 -76.8109 286° West  Level FlightAware Approximate
05:03PM 43.1961 -76.4194 284° West 302 348 10,900  Level Cleveland Center
05:04PM 43.2172 -76.5461 283° West 327 376 12,000 1,080 Climbing Cleveland Center
05:05PM 43.2386 -76.6817 282° West 353 406 13,100 1,140 Climbing Cleveland Center
05:06PM 43.2619 -76.8228 283° West 367 422 14,300 1,260 Climbing Cleveland Center
05:07PM 43.2872 -76.9639 284° West 376 433 15,700 1,440 Climbing Cleveland Center
05:08PM 43.3081 -77.0997 282° West 376 433 17,200 1,200 Climbing Cleveland Center
05:09PM 43.3103 -77.2394 271° West 370 426 18,200 1,200 Climbing Cleveland Center
05:10PM 43.3058 -77.3794 268° West 365 420 19,700 1,440 Climbing Cleveland Center
05:11PM 43.3033 -77.5164 269° West 365 420 21,100 1,380 Climbing Cleveland Center
05:12PM 43.2986 -77.6536 267° West 365 420 22,500 1,440 Climbing Cleveland Center
05:13PM 43.2936 -77.7908 267° West 365 420 24,000 1,440 Climbing Cleveland Center
05:14PM 43.2906 -77.9278 268° West 365 420 25,400 1,380 Climbing Cleveland Center
05:15PM 43.2872 -78.0619 268° West 365 420 26,800 1,200 Climbing Cleveland Center
05:16PM 43.2817 -78.1964 267° West 365 420 27,900 960 Climbing Cleveland Center
05:17PM 43.2783 -78.3333 268° West 365 420 28,800 900 Climbing Cleveland Center
05:18PM 43.2744 -78.4703 268° West 365 420 29,800 900 Climbing Cleveland Center
05:19PM 43.2686 -78.6075 267° West 365 420 30,700 900 Climbing Cleveland Center
05:20PM 43.2625 -78.7444 267° West 365 420 31,700 900 Climbing Cleveland Center
05:21PM 43.2583 -78.8844 268° West 370 426 32,600 900 Climbing Cleveland Center
05:22PM 43.2500 -78.9500 260° West 370 426 33,200 960 Climbing Toronto Center
05:23PM 43.2333 -79.1000 261° West 370 426 34,200 900 Climbing Toronto Center
05:24PM 43.2333 -79.2500 270° West 370 426 35,100 900 Climbing Toronto Center
05:25PM 43.2333 -79.3833 270° West 360 414 36,000 420 Climbing Toronto Center
05:26PM 43.2167 -79.5167 260° West 370 426 36,000  Level Toronto Center
05:27PM 43.2167 -79.6833 270° West 380 437 36,000  Level Toronto Center
05:28PM 43.2167 -79.8167 270° West 400 460 36,000  Level Toronto Center
05:29PM 43.2000 -79.9833 262° West 390 449 36,000  Level Toronto Center
05:30PM 43.2000 -80.1167 270° West 400 460 36,000  Level Toronto Center
05:31PM 43.1833 -80.2667 261° West 400 460 36,000  Level Toronto Center
05:32PM 43.1833 -80.4167 270° West 400 460 36,000  Level Toronto Center
05:33PM 43.1667 -80.5667 261° West 390 449 36,000  Level Toronto Center
05:34PM 43.1667 -80.7333 270° West 390 449 36,000  Level Toronto Center
05:35PM 43.1500 -80.8667 260° West 390 449 36,000  Level Toronto Center
05:36PM 43.1333 -81.0333 262° West 400 460 36,000  Level Toronto Center
05:37PM 43.1333 -81.1667 270° West 390 449 36,000  Level Toronto Center
05:38PM 43.1167 -81.3167 261° West 390 449 36,000  Level Toronto Center
05:39PM 43.1167 -81.4667 270° West 400 460 36,000  Level Toronto Center
05:40PM 43.1167 -81.6167 270° West 400 460 36,000  Level Toronto Center
05:41PM 43.1500 -81.7500 289° West 390 449 36,000  Level Toronto Center
05:42PM 43.2167 -81.9000 301° West 410 472 36,000  Level Toronto Center
05:43PM 43.2000 -82.0333 260° West 400 460 36,000  Level Toronto Center
05:44PM 43.1833 -82.2000 262° West 410 472 36,000  Level Toronto Center
05:45PM 43.1667 -82.3500 261° West 410 472 36,000  Level Toronto Center
05:46PM 43.1500 -82.5167 262° West 400 460 36,000  Level Toronto Center
05:47PM 43.1294 -82.6456 258° West 409 471 36,000  Level Cleveland Center
05:48PM 43.1078 -82.7983 259° West 409 471 36,000  Level Cleveland Center
05:49PM 43.0861 -82.9456 259° West 409 471 36,000  Level Cleveland Center
05:50PM 43.0644 -83.0953 259° West 409 471 36,000 -300 Level Cleveland Center
05:51PM 43.0442 -83.2450 260° West 409 471 35,400 -840 Descending Cleveland Center
05:52PM 43.0200 -83.3944 258° West 409 471 34,400 -1,080 Descending Cleveland Center
05:53PM 42.9950 -83.5525 258° West 414 476 33,300 -1,080 Descending Cleveland Center
05:54PM 42.9722 -83.7131 259° West 421 484 32,300 -660 Descending Cleveland Center
05:55PM 42.9531 -83.8767 261° West 433 498 32,000 -180 Descending Cleveland Center
05:56PM 42.9378 -84.0375 263° West 433 498 32,000  Level Cleveland Center
05:57PM 42.9203 -84.2039 262° West 433 498 32,000  Level Cleveland Center
05:58PM 42.9033 -84.3447 261° West 438 504 32,000  Level Cleveland Center
05:58PM 42.8997 -84.4347 267° West 435 501 32,000  Level Chicago Center
05:59PM 42.8836 -84.5986 262° West 436 502 32,000  Level Chicago Center
06:01PM 42.8669 -84.7617 262° West 436 502 32,000  Level Chicago Center
06:02PM 42.8489 -84.9244 261° West 435 501 32,000  Level Chicago Center
06:03PM 42.8283 -85.1183 262° West 434 499 32,000 -540 Level Chicago Center
06:04PM 42.8114 -85.2792 262° West 430 495 30,900 -1,260 Descending Chicago Center
06:05PM 42.7919 -85.4456 261° West 439 505 29,400 -1,500 Descending Chicago Center
06:06PM 42.7672 -85.6128 259° West 447 514 27,900 -1,500 Descending Chicago Center
06:07PM 42.7364 -85.7767 256° West 444 511 26,300 -1,800 Descending Chicago Center
06:08PM 42.7061 -85.9411 256° West 446 513 24,200 -2,100 Descending Chicago Center
06:09PM 42.6772 -86.0997 256° West 433 498 22,000 -1,920 Descending Chicago Center
06:10PM 42.6439 -86.2803 256° West 410 472 20,200 -1,500 Descending Chicago Center
06:11PM 42.6150 -86.4275 255° West 405 466 18,900 -1,380 Descending Chicago Center
06:12PM 42.5881 -86.5711 256° West 395 455 17,400 -1,500 Descending Chicago Center
06:13PM 42.5631 -86.7106 256° West 383 441 15,800 -1,560 Descending Chicago Center
06:14PM 42.5297 -86.8447 251° West 379 436 14,200 -1,620 Descending Chicago Center
06:16PM 42.4497 -87.1292 249° West 365 420 10,900 -1,380 Descending Chicago Center
06:17PM 42.4156 -87.2506 249° West 349 402 10,000 -480 Descending Chicago Center
06:18PM 42.3833 -87.3700 250° West 341 392 10,000  Level Chicago Center
06:19PM 42.3492 -87.4933 249° West 334 384 10,000  Level Chicago Center
06:20PM 42.2911 -87.5867 230° Southwest 330 380 10,000  Level Chicago Center
06:21PM 42.2178 -87.6614 217° Southwest 332 382 10,000 -240 Level Chicago Center
06:22PM 42.1564 -87.7292 219° Southwest 287 330 9,600 -900 Descending Chicago Center
06:23PM 42.1000 -87.8167 229° Southwest 276 318 8,300 -1,320 Descending Chicago TRACON
06:24PM 42.0833 -87.9000 255° West 271 312 7,100 -660 Descending Chicago TRACON
06:25PM 42.0667 -88.0000 257° West 205 236 7,000 -180 Descending Chicago TRACON
06:26PM 42.0667 -88.0500 270° West 203 234 6,800 -840 Descending Chicago TRACON
06:27PM 42.0667 -88.1333 270° West 199 229 5,400 -1,200 Descending Chicago TRACON
06:28PM 42.0500 -88.2000 251° West 203 234 4,400 -1,080 Descending Chicago TRACON
06:28PM 42.0283 -88.1981 176° South 205 236 4,100 -960 Descending Chicago Center
06:29PM 42.0006 -88.1458 126° Southeast 197 227 3,200 -900 Descending Chicago Center